Time;durP1;ratioP1;P1;durP2;ratioP2;P2;SDS_P1;SDS_P2;PMS_P1;PMS_P2;Temp;Humidity;BMP_temperature;BMP_pressure;BME280_temperature;BME280_humidity;BME280_pressure;Samples;Min_cycle;Max_cycle;Signal;HPM_P1;HPM_P2
2022/01/01 00:02:17;;;;;;;7.45;3.85;;;;;;;11.33;100.00;101568.97;5016870;28;20038;-51
2022/01/01 00:04:43;;;;;;;6.85;3.65;;;;;;;11.28;100.00;101574.19;5018419;28;21707;-49
2022/01/01 00:07:12;;;;;;;5.85;3.80;;;;;;;11.31;100.00;101579.94;5020669;28;20035;-49
2022/01/01 00:09:41;;;;;;;6.60;3.40;;;;;;;11.36;100.00;101581.91;5018789;28;20033;-50
2022/01/01 00:12:07;;;;;;;5.25;3.55;;;;;;;11.34;100.00;101587.53;5020183;28;20148;-50
2022/01/01 00:14:34;;;;;;;6.03;3.80;;;;;;;11.34;100.00;101592.06;5004276;28;20273;-52
2022/01/01 00:17:00;;;;;;;5.80;3.85;;;;;;;11.35;100.00;101597.19;5019069;28;20152;-52
2022/01/01 00:19:25;;;;;;;6.80;3.72;;;;;;;11.35;100.00;101591.03;5020225;28;20169;-54
2022/01/01 00:21:51;;;;;;;8.27;4.85;;;;;;;11.36;100.00;101600.69;5019956;28;20022;-50
2022/01/01 00:24:16;;;;;;;7.88;4.40;;;;;;;11.32;100.00;101595.00;5021818;28;20037;-56
2022/01/01 00:26:42;;;;;;;5.22;3.72;;;;;;;11.32;100.00;101592.31;5022227;28;20038;-51
2022/01/01 00:29:07;;;;;;;6.43;3.78;;;;;;;11.30;100.00;101598.94;5021657;28;20411;-50
2022/01/01 00:31:33;;;;;;;8.43;3.45;;;;;;;11.32;100.00;101596.84;5021721;28;20021;-51
2022/01/01 00:33:59;;;;;;;6.78;3.40;;;;;;;11.32;100.00;101604.91;5019936;28;20397;-52
2022/01/01 00:36:28;;;;;;;6.38;3.40;;;;;;;11.29;100.00;101605.34;5000087;28;20029;-51
2022/01/01 00:38:54;;;;;;;5.10;2.97;;;;;;;11.30;100.00;101607.78;5021658;28;20403;-50
2022/01/01 00:41:21;;;;;;;4.80;3.30;;;;;;;11.28;100.00;101609.91;5017690;28;20029;-49
2022/01/01 00:43:47;;;;;;;6.00;2.95;;;;;;;11.34;100.00;101619.72;5024287;28;20025;-49
2022/01/01 00:46:12;;;;;;;4.72;3.00;;;;;;;11.30;100.00;101615.84;5022086;28;20125;-49
2022/01/01 00:48:38;;;;;;;5.43;2.88;;;;;;;11.37;100.00;101603.16;5023041;28;20041;-49
2022/01/01 00:51:04;;;;;;;4.82;3.40;;;;;;;11.34;100.00;101613.53;5027414;28;20021;-50
2022/01/01 00:53:30;;;;;;;5.68;3.47;;;;;;;11.30;100.00;101612.34;5023428;28;20045;-51
2022/01/01 00:55:56;;;;;;;6.80;3.90;;;;;;;11.33;100.00;101617.28;5023046;28;20021;-49
2022/01/01 00:58:22;;;;;;;10.48;4.15;;;;;;;11.27;100.00;101618.19;5022249;28;20071;-51
2022/01/01 01:00:47;;;;;;;7.40;4.00;;;;;;;11.34;100.00;101625.09;5023528;28;20029;-50
2022/01/01 01:03:16;;;;;;;7.60;4.28;;;;;;;11.31;100.00;101620.19;5025416;28;20036;-49
2022/01/01 01:05:43;;;;;;;7.28;3.65;;;;;;;11.30;100.00;101621.22;5024859;28;20041;-48
2022/01/01 01:08:10;;;;;;;8.60;4.53;;;;;;;11.31;100.00;101627.38;5025246;28;20025;-53
2022/01/01 01:10:37;;;;;;;7.25;4.43;;;;;;;11.31;100.00;101632.75;5025396;28;20032;-48
2022/01/01 01:13:04;;;;;;;10.98;5.03;;;;;;;11.30;100.00;101639.16;5022919;28;20551;-52
2022/01/01 01:15:32;;;;;;;10.55;5.20;;;;;;;11.31;100.00;101636.28;5025822;28;20040;-49
2022/01/01 01:17:58;;;;;;;7.88;4.20;;;;;;;11.32;100.00;101631.72;5026206;28;20038;-52
2022/01/01 01:20:26;;;;;;;9.05;4.88;;;;;;;11.28;100.00;101634.03;5023079;28;20057;-51
2022/01/01 01:22:52;;;;;;;8.57;4.65;;;;;;;11.27;100.00;101639.63;5025295;28;20189;-49
2022/01/01 01:25:17;;;;;;;9.68;4.63;;;;;;;11.27;100.00;101648.50;5023087;28;20037;-49
2022/01/01 01:27:44;;;;;;;8.13;4.70;;;;;;;11.24;100.00;101646.28;5025571;28;20124;-49
2022/01/01 01:30:13;;;;;;;8.30;4.13;;;;;;;11.29;100.00;101641.03;5021719;28;20194;-50
2022/01/01 01:32:39;;;;;;;10.70;4.35;;;;;;;11.23;100.00;101644.66;5023663;28;20077;-48
2022/01/01 01:35:05;;;;;;;8.15;3.75;;;;;;;11.30;100.00;101649.91;5025649;28;20033;-50
2022/01/01 01:37:31;;;;;;;7.50;3.83;;;;;;;11.28;100.00;101657.38;5024930;28;20040;-50
2022/01/01 01:39:57;;;;;;;5.70;3.95;;;;;;;11.25;100.00;101655.97;5024526;28;20037;-51
2022/01/01 01:42:25;;;;;;;9.55;3.10;;;;;;;11.26;100.00;101659.47;5025487;28;20032;-53
2022/01/01 01:44:53;;;;;;;6.13;3.30;;;;;;;11.29;100.00;101670.53;5023128;28;20018;-51
2022/01/01 01:47:28;;;;;;;7.10;3.35;;;;;;;11.26;100.00;101676.38;5026361;28;20032;-48
2022/01/01 01:49:54;;;;;;;;;;;;;;;11.20;100.00;101672.75;5029261;28;20025;-51
2022/01/01 01:52:20;;;;;;;5.55;2.88;;;;;;;11.23;100.00;101676.84;5022375;28;19931;-48
2022/01/01 01:54:46;;;;;;;4.70;2.92;;;;;;;11.29;100.00;101680.47;5024349;28;20029;-48
2022/01/01 01:57:12;;;;;;;6.63;2.80;;;;;;;11.24;100.00;101674.97;5026401;28;20039;-50
2022/01/01 01:59:37;;;;;;;5.25;2.05;;;;;;;11.19;100.00;101676.50;5023901;28;20108;-49
2022/01/01 02:02:03;;;;;;;5.65;2.53;;;;;;;11.20;100.00;101682.66;5025937;28;20053;-49
2022/01/01 02:04:28;;;;;;;10.35;2.63;;;;;;;11.21;100.00;101684.31;5025131;28;21468;-50
2022/01/01 02:06:54;;;;;;;5.63;2.40;;;;;;;11.23;100.00;101692.94;5028984;28;20287;-48
2022/01/01 02:09:19;;;;;;;6.40;2.88;;;;;;;11.22;100.00;101690.50;5022205;28;20079;-51
2022/01/01 02:11:46;;;;;;;7.70;2.35;;;;;;;11.26;100.00;101692.47;5025225;28;20729;-48
2022/01/01 02:14:22;;;;;;;7.20;2.65;;;;;;;11.19;100.00;101694.44;5023337;28;20029;-50
2022/01/01 02:17:07;;;;;;;6.15;2.33;;;;;;;11.26;100.00;101707.75;5028074;28;20079;-48
2022/01/01 02:19:59;;;;;;;6.70;2.55;;;;;;;11.25;100.00;101696.19;5024729;28;20029;-49
2022/01/01 02:22:26;;;;;;;4.88;2.28;;;;;;;11.25;100.00;101703.44;5019574;28;20032;-51
2022/01/01 02:24:51;;;;;;;7.10;2.63;;;;;;;11.27;100.00;101704.03;5022743;28;20024;-48
2022/01/01 02:27:17;;;;;;;8.27;3.00;;;;;;;11.32;100.00;101706.84;5020293;28;20674;-50
2022/01/01 02:29:43;;;;;;;5.28;2.60;;;;;;;11.28;100.00;101717.19;5021460;28;20768;-51
2022/01/01 02:32:11;;;;;;;5.28;2.83;;;;;;;11.27;100.00;101725.47;5023904;28;20488;-52
2022/01/01 02:34:37;;;;;;;4.72;2.88;;;;;;;11.30;100.00;101730.38;5024128;28;20100;-48
2022/01/01 02:37:04;;;;;;;6.00;2.95;;;;;;;11.25;100.00;101720.34;5024401;28;20433;-49
2022/01/01 02:39:29;;;;;;;5.50;2.97;;;;;;;11.22;100.00;101728.84;5023391;28;20040;-49
2022/01/01 02:41:56;;;;;;;5.78;2.50;;;;;;;11.27;100.00;101731.66;5026252;28;20029;-49
2022/01/01 02:44:23;;;;;;;4.60;2.30;;;;;;;11.37;100.00;101731.94;5022571;28;20025;-52
2022/01/01 02:46:49;;;;;;;4.80;2.80;;;;;;;11.35;100.00;101733.22;5070894;23;20125;-50
2022/01/01 02:49:14;;;;;;;6.32;3.05;;;;;;;11.35;100.00;101736.72;5036551;28;20035;-52
2022/01/01 02:51:40;;;;;;;8.70;3.50;;;;;;;11.29;100.00;101737.63;5035340;28;20025;-52
2022/01/01 02:54:05;;;;;;;8.05;3.38;;;;;;;11.24;100.00;101736.69;5035757;28;20033;-52
2022/01/01 02:56:31;;;;;;;7.07;3.30;;;;;;;11.33;100.00;101729.97;5054225;28;20024;-52
2022/01/01 02:58:56;;;;;;;5.57;3.13;;;;;;;11.23;100.00;101729.66;5054850;28;20097;-50
2022/01/01 03:01:22;;;;;;;8.30;3.38;;;;;;;11.27;100.00;101736.22;5056893;28;20139;-52
2022/01/01 03:03:47;;;;;;;5.68;3.58;;;;;;;11.27;100.00;101747.75;5049520;28;20031;-53
2022/01/01 03:06:19;;;;;;;7.10;4.00;;;;;;;11.31;100.00;101748.97;5053708;28;20058;-52
2022/01/01 03:08:50;;;;;;;5.80;3.45;;;;;;;11.32;100.00;101752.47;5051695;28;20485;-52
2022/01/01 03:11:16;;;;;;;5.32;2.60;;;;;;;11.29;100.00;101752.91;5049037;28;20475;-50
2022/01/01 03:13:42;;;;;;;6.00;3.10;;;;;;;11.27;100.00;101765.72;5055230;28;20051;-52
2022/01/01 03:16:08;;;;;;;6.72;3.10;;;;;;;11.30;100.00;101773.31;5055228;28;20135;-53
2022/01/01 03:18:33;;;;;;;6.43;2.90;;;;;;;11.29;100.00;101774.34;5054226;28;20111;-52
2022/01/01 03:20:59;;;;;;;6.75;3.40;;;;;;;11.23;100.00;101767.22;5048612;28;20417;-53
2022/01/01 03:23:24;;;;;;;5.68;3.20;;;;;;;11.27;100.00;101760.34;5052683;28;20031;-50
2022/01/01 03:25:50;;;;;;;8.45;2.95;;;;;;;11.24;100.00;101761.63;5055286;28;20036;-52
2022/01/01 03:28:15;;;;;;;5.35;3.20;;;;;;;11.22;100.00;101763.72;5040459;28;20039;-50
2022/01/01 03:30:41;;;;;;;6.38;2.90;;;;;;;11.23;100.00;101780.66;5056980;28;20526;-52
2022/01/01 03:33:06;;;;;;;10.07;3.13;;;;;;;11.23;100.00;101775.28;5054205;28;20029;-50
2022/01/01 03:35:32;;;;;;;9.27;3.15;;;;;;;11.30;100.00;101784.84;5042413;28;20036;-50
2022/01/01 03:37:57;;;;;;;4.85;2.97;;;;;;;11.28;100.00;101770.84;5056983;28;20125;-53
2022/01/01 03:40:23;;;;;;;9.60;3.03;;;;;;;11.28;100.00;101772.72;5052550;28;20020;-51
2022/01/01 03:42:48;;;;;;;9.00;3.50;;;;;;;11.27;100.00;101779.13;5054247;28;20095;-49
2022/01/01 03:45:14;;;;;;;7.07;3.05;;;;;;;11.28;100.00;101776.22;5055068;28;20039;-50
2022/01/01 03:47:39;;;;;;;7.63;3.35;;;;;;;11.29;100.00;101782.41;5051226;28;20388;-53
2022/01/01 03:50:05;;;;;;;7.82;3.40;;;;;;;11.34;100.00;101786.06;5052847;28;20123;-49
2022/01/01 03:52:31;;;;;;;8.30;3.03;;;;;;;11.32;100.00;101784.66;5051603;28;20078;-52
2022/01/01 03:54:56;;;;;;;7.47;3.05;;;;;;;11.27;100.00;101779.13;5052258;28;20032;-49
2022/01/01 03:57:22;;;;;;;4.43;3.00;;;;;;;11.29;100.00;101790.47;5059491;28;20031;-53
2022/01/01 03:59:47;;;;;;;8.27;3.35;;;;;;;11.26;100.00;101778.31;5052641;28;20032;-52
2022/01/01 04:02:14;;;;;;;5.63;3.00;;;;;;;11.29;100.00;101787.78;5054503;28;20024;-50
2022/01/01 04:04:40;;;;;;;7.60;3.25;;;;;;;11.27;100.00;101796.06;5053354;28;20044;-51
2022/01/01 04:07:06;;;;;;;6.03;3.03;;;;;;;11.27;100.00;101798.72;5049034;28;20109;-53
2022/01/01 04:09:32;;;;;;;6.38;3.20;;;;;;;11.32;100.00;101798.06;5047984;28;20028;-51
2022/01/01 04:11:57;;;;;;;6.38;3.00;;;;;;;11.31;100.00;101791.91;5053346;28;20420;-53
2022/01/01 04:14:23;;;;;;;6.95;3.15;;;;;;;11.29;100.00;101796.63;5052499;28;20395;-52
2022/01/01 04:16:50;;;;;;;7.05;2.97;;;;;;;11.34;100.00;101798.66;5056200;28;20025;-49
2022/01/01 04:19:16;;;;;;;4.05;2.92;;;;;;;11.28;100.00;101797.69;5056631;28;20127;-51
2022/01/01 04:21:41;;;;;;;6.55;2.78;;;;;;;11.25;100.00;101810.75;5054394;28;20457;-53
2022/01/01 04:24:07;;;;;;;6.95;2.75;;;;;;;11.31;100.00;101809.81;5050637;28;20535;-52
2022/01/01 04:26:33;;;;;;;6.60;2.65;;;;;;;11.33;100.00;101805.91;5053124;28;20554;-53
2022/01/01 04:28:59;;;;;;;6.03;2.50;;;;;;;11.27;100.00;101808.66;5049996;28;20028;-53
2022/01/01 04:31:26;;;;;;;5.10;2.42;;;;;;;11.35;100.00;101802.97;5053209;28;20508;-53
2022/01/01 04:33:51;;;;;;;4.20;2.53;;;;;;;11.34;99.81;101815.59;5053349;28;20025;-53
2022/01/01 04:36:17;;;;;;;4.10;2.42;;;;;;;11.31;100.00;101817.88;5051870;28;21440;-50
2022/01/01 04:38:44;;;;;;;3.72;2.60;;;;;;;11.30;100.00;101813.56;5049927;28;20436;-52
2022/01/01 04:41:13;;;;;;;7.93;2.95;;;;;;;11.34;99.82;101820.94;5052517;28;20064;-53
2022/01/01 04:43:43;;;;;;;6.55;3.00;;;;;;;11.34;99.74;101820.13;5057240;28;20032;-52
2022/01/01 04:46:10;;;;;;;6.20;2.80;;;;;;;11.28;99.96;101824.50;5049961;28;20024;-50
2022/01/01 04:48:37;;;;;;;7.10;3.05;;;;;;;11.28;99.81;101827.19;5053291;28;20204;-52
2022/01/01 04:51:07;;;;;;;11.05;3.08;;;;;;;11.26;99.50;101825.78;5053370;28;20107;-53
2022/01/01 04:53:39;;;;;;;5.15;2.65;;;;;;;11.18;99.46;101832.28;5051773;28;20056;-51
2022/01/01 04:56:07;;;;;;;6.38;3.13;;;;;;;11.24;99.25;101836.75;5052077;28;20115;-51
2022/01/01 04:58:33;;;;;;;5.15;2.83;;;;;;;11.25;98.98;101834.88;5034639;28;20081;-52
2022/01/01 05:00:58;;;;;;;4.93;3.30;;;;;;;11.20;98.91;101833.72;5052343;28;20581;-52
2022/01/01 05:03:24;;;;;;;8.38;3.60;;;;;;;11.17;98.77;101834.16;5053982;28;20256;-51
2022/01/01 05:05:49;;;;;;;6.47;3.28;;;;;;;11.20;98.49;101839.06;5052325;28;20357;-53
2022/01/01 05:08:15;;;;;;;7.68;2.83;;;;;;;11.22;98.25;101835.34;5052558;28;20487;-51
2022/01/01 05:10:40;;;;;;;10.70;3.50;;;;;;;11.17;97.96;101828.78;5052512;28;20020;-52
2022/01/01 05:13:06;;;;;;;9.18;3.75;;;;;;;11.24;98.00;101835.94;5051683;28;20120;-53
2022/01/01 05:15:31;;;;;;;12.15;3.83;;;;;;;11.26;97.90;101836.53;5052972;28;20481;-50
2022/01/01 05:17:57;;;;;;;8.35;3.33;;;;;;;11.18;97.87;101845.72;5035376;28;20036;-53
2022/01/01 05:20:22;;;;;;;7.55;3.58;;;;;;;11.27;97.84;101848.88;5055927;28;20063;-50
2022/01/01 05:22:48;;;;;;;9.88;4.55;;;;;;;11.18;97.44;101846.53;5054492;28;20392;-53
2022/01/01 05:25:13;;;;;;;11.18;4.35;;;;;;;11.20;97.47;101849.81;5040672;28;20032;-52
2022/01/01 05:27:40;;;;;;;7.03;3.50;;;;;;;11.23;97.46;101851.22;5053442;28;20615;-53
2022/01/01 05:30:07;;;;;;;7.35;4.00;;;;;;;11.22;97.65;101852.25;5052198;28;20177;-50
2022/01/01 05:32:33;;;;;;;8.68;3.92;;;;;;;11.22;97.88;101856.81;5053042;28;20025;-51
2022/01/01 05:34:58;;;;;;;7.28;3.75;;;;;;;11.23;98.10;101864.63;5053009;28;20032;-52
2022/01/01 05:37:24;;;;;;;8.27;3.78;;;;;;;11.18;98.31;101865.31;5058234;28;20037;-52
2022/01/01 05:39:50;;;;;;;7.78;3.90;;;;;;;11.19;98.44;101868.81;5052364;28;20032;-51
2022/01/01 05:42:15;;;;;;;7.03;3.72;;;;;;;11.13;98.84;101865.16;5051784;28;20507;-52
2022/01/01 05:44:41;;;;;;;11.32;4.32;;;;;;;11.11;98.39;101871.78;5042173;28;20301;-50
2022/01/01 05:47:06;;;;;;;8.65;3.42;;;;;;;11.09;98.11;101874.69;5054523;28;20033;-51
2022/01/01 05:49:32;;;;;;;9.52;4.15;;;;;;;11.15;98.11;101873.81;5058461;28;20040;-50
2022/01/01 05:51:57;;;;;;;6.72;3.78;;;;;;;11.12;98.15;101876.91;5054018;28;20028;-51
2022/01/01 05:54:23;;;;;;;9.70;3.92;;;;;;;11.09;97.99;101885.41;5052741;28;20150;-51
2022/01/01 05:56:48;;;;;;;7.22;3.70;;;;;;;11.06;98.33;101888.53;5055601;28;20451;-52
2022/01/01 05:59:14;;;;;;;6.45;3.50;;;;;;;11.12;97.93;101884.97;5053205;28;20051;-52
2022/01/01 06:01:40;;;;;;;8.10;3.88;;;;;;;11.16;97.71;101882.66;5042589;28;20484;-50
2022/01/01 06:04:05;;;;;;;8.00;4.15;;;;;;;11.08;98.22;101886.44;5051438;28;20506;-53
2022/01/01 06:06:30;;;;;;;10.00;3.97;;;;;;;11.12;97.99;101892.19;5059464;28;20028;-51
2022/01/01 06:08:56;;;;;;;11.52;3.90;;;;;;;11.07;98.07;101892.88;5055724;28;20456;-53
2022/01/01 06:11:21;;;;;;;7.97;3.70;;;;;;;11.14;98.04;101900.84;5054075;28;20032;-53
2022/01/01 06:13:47;;;;;;;8.63;3.63;;;;;;;11.16;97.65;101902.28;5053129;28;20052;-52
2022/01/01 06:16:12;;;;;;;9.50;3.55;;;;;;;11.10;97.70;101911.19;5064250;28;20028;-54
2022/01/01 06:18:38;;;;;;;12.45;4.05;;;;;;;11.11;97.98;101914.69;5059941;28;20083;-52
2022/01/01 06:21:04;;;;;;;15.43;3.88;;;;;;;11.08;98.02;101920.50;5054865;28;20043;-51
2022/01/01 06:23:29;;;;;;;7.07;3.35;;;;;;;11.10;98.01;101919.22;5059632;28;20145;-51
2022/01/01 06:25:55;;;;;;;8.23;3.30;;;;;;;11.09;98.22;101922.97;5060945;28;20441;-53
2022/01/01 06:28:21;;;;;;;7.32;3.40;;;;;;;11.10;98.21;101929.97;5055359;28;20492;-53
2022/01/01 06:30:46;;;;;;;8.18;3.10;;;;;;;11.10;98.08;101939.88;5057880;28;20036;-53
2022/01/01 06:33:14;;;;;;;8.35;3.08;;;;;;;11.01;98.09;101928.63;5057027;28;20043;-50
2022/01/01 06:35:41;;;;;;;9.25;3.90;;;;;;;11.05;97.97;101932.50;5058811;28;20410;-51
2022/01/01 06:38:07;;;;;;;6.38;3.00;;;;;;;11.00;98.04;101927.00;5053555;28;20024;-52
2022/01/01 06:40:32;;;;;;;6.78;3.03;;;;;;;10.93;98.19;101936.13;5056256;28;20020;-50
2022/01/01 06:42:58;;;;;;;7.60;3.42;;;;;;;10.96;98.13;101933.84;5054503;28;20041;-53
2022/01/01 06:45:24;;;;;;;6.72;3.38;;;;;;;10.93;98.17;101931.59;5053019;28;20043;-50
2022/01/01 06:47:49;;;;;;;9.88;3.58;;;;;;;10.91;98.42;101944.41;5056623;28;20119;-50
2022/01/01 06:50:15;;;;;;;7.80;3.30;;;;;;;10.95;97.99;101944.75;5052778;28;20040;-52
2022/01/01 06:52:44;;;;;;;7.13;3.53;;;;;;;10.95;97.89;101947.44;5056536;28;20426;-52
2022/01/01 06:55:11;;;;;;;6.97;3.78;;;;;;;10.95;98.08;101959.03;5056955;28;20021;-53
2022/01/01 06:57:38;;;;;;;10.05;3.95;;;;;;;10.99;98.02;101965.56;5055204;28;20481;-50
2022/01/01 07:00:05;;;;;;;9.60;3.38;;;;;;;10.96;97.93;101957.16;5051481;28;21302;-53
2022/01/01 07:02:30;;;;;;;13.38;4.63;;;;;;;10.90;98.62;101962.34;5058937;28;20025;-50
2022/01/01 07:04:56;;;;;;;8.75;3.50;;;;;;;10.95;98.19;101963.53;5055217;28;20381;-52
2022/01/01 07:07:21;;;;;;;12.10;4.40;;;;;;;10.97;98.03;101962.31;5051742;28;20288;-51
2022/01/01 07:09:47;;;;;;;8.43;4.60;;;;;;;11.00;97.82;101969.06;5050431;28;20353;-53
2022/01/01 07:12:12;;;;;;;12.23;3.95;;;;;;;10.90;98.27;101969.56;5053207;28;20083;-51
2022/01/01 07:14:38;;;;;;;11.43;4.47;;;;;;;10.96;98.22;101968.72;5040131;28;20033;-52
2022/01/01 07:17:03;;;;;;;11.52;4.40;;;;;;;10.90;98.36;101972.25;5052186;28;20043;-53
2022/01/01 07:19:29;;;;;;;8.73;4.43;;;;;;;10.89;98.11;101979.47;5051926;28;20035;-53
2022/01/01 07:21:59;;;;;;;9.02;4.30;;;;;;;10.80;98.96;101980.00;5039192;28;20094;-50
2022/01/01 07:24:25;;;;;;;14.18;4.40;;;;;;;10.80;98.88;101983.50;5052869;28;20028;-50
2022/01/01 07:26:51;;;;;;;19.13;5.43;;;;;;;10.85;99.03;101980.13;5054952;28;20032;-53
2022/01/01 07:29:16;;;;;;;9.52;4.05;;;;;;;10.88;98.51;101985.06;5053654;28;20064;-50
2022/01/01 07:31:42;;;;;;;14.77;5.30;;;;;;;10.83;99.17;101984.91;5053085;28;20041;-51
2022/01/01 07:34:07;;;;;;;19.65;5.40;;;;;;;10.87;98.83;101980.75;5039588;28;20052;-53
2022/01/01 07:36:33;;;;;;;12.07;4.88;;;;;;;10.89;98.85;101987.53;5052742;28;20028;-53
2022/01/01 07:38:58;;;;;;;13.32;5.70;;;;;;;10.86;98.99;101985.28;5053295;28;20098;-52
2022/01/01 07:41:23;;;;;;;12.68;4.80;;;;;;;10.88;98.72;101987.75;5054044;28;20035;-52
2022/01/01 07:43:49;;;;;;;13.30;4.78;;;;;;;10.80;99.05;101994.22;5050427;28;20090;-51
2022/01/01 07:46:14;;;;;;;13.23;4.97;;;;;;;10.81;99.19;101995.84;5050307;28;20035;-50
2022/01/01 07:48:40;;;;;;;13.43;5.05;;;;;;;10.85;99.13;101996.22;5053213;28;20040;-50
2022/01/01 07:51:05;;;;;;;13.52;5.53;;;;;;;10.81;99.53;101998.53;5049538;28;20031;-53
2022/01/01 07:53:31;;;;;;;15.02;5.05;;;;;;;10.77;99.51;102007.22;5051612;28;20020;-50
2022/01/01 07:55:56;;;;;;;13.05;5.53;;;;;;;10.77;99.81;102001.84;5051853;28;20036;-51
2022/01/01 07:58:22;;;;;;;13.43;5.72;;;;;;;10.79;99.79;102005.16;5052073;28;20149;-49
2022/01/01 08:00:47;;;;;;;15.10;5.28;;;;;;;10.75;100.00;102018.16;5049462;28;20502;-53
2022/01/01 08:03:13;;;;;;;15.80;5.28;;;;;;;10.84;100.00;102013.34;5052802;28;20079;-50
2022/01/01 08:05:39;;;;;;;14.70;6.55;;;;;;;10.83;100.00;102017.91;5050795;28;20070;-53
2022/01/01 08:08:05;;;;;;;12.60;5.55;;;;;;;10.81;99.78;102017.31;5051982;28;20091;-50
2022/01/01 08:10:31;;;;;;;12.27;6.32;;;;;;;10.83;100.00;102014.41;5054775;28;20025;-53
2022/01/01 08:12:58;;;;;;;14.10;5.38;;;;;;;10.87;99.68;102019.09;5054452;28;20140;-53
2022/01/01 08:15:23;;;;;;;16.75;5.03;;;;;;;10.89;99.76;102014.34;5047607;28;20400;-52
2022/01/01 08:17:49;;;;;;;13.27;5.22;;;;;;;10.88;99.57;102017.22;5049741;28;20028;-50
2022/01/01 08:20:14;;;;;;;14.68;4.63;;;;;;;10.93;99.66;102024.63;5046305;28;20104;-50
2022/01/01 08:22:40;;;;;;;8.85;4.50;;;;;;;10.89;99.59;102026.91;5053044;28;20032;-51
2022/01/01 08:25:06;;;;;;;10.80;4.40;;;;;;;10.97;99.11;102037.38;5052237;28;20492;-53
2022/01/01 08:27:31;;;;;;;7.22;4.40;;;;;;;10.96;99.19;102046.47;5050036;28;20028;-53
2022/01/01 08:29:57;;;;;;;11.05;4.50;;;;;;;10.97;99.08;102045.44;5046574;28;20032;-53
2022/01/01 08:32:22;;;;;;;11.90;4.25;;;;;;;11.00;98.78;102042.31;5053564;28;20020;-52
2022/01/01 08:34:47;;;;;;;8.85;4.60;;;;;;;11.01;98.72;102048.50;5051376;28;20319;-53
2022/01/01 08:37:13;;;;;;;14.52;4.50;;;;;;;11.05;98.79;102047.81;5055597;28;20055;-52
2022/01/01 08:39:39;;;;;;;10.07;4.05;;;;;;;11.05;99.20;102044.31;5051407;28;20384;-52
2022/01/01 08:42:05;;;;;;;12.32;4.15;;;;;;;11.05;98.84;102045.16;5049912;28;20033;-53
2022/01/01 08:44:31;;;;;;;13.43;5.22;;;;;;;11.09;98.79;102051.69;5048591;28;20108;-51
2022/01/01 08:46:57;;;;;;;11.10;4.18;;;;;;;11.16;98.22;102060.53;5053260;28;20123;-55
2022/01/01 08:49:22;;;;;;;11.95;5.13;;;;;;;11.18;97.96;102055.75;5054758;28;20043;-55
2022/01/01 08:51:48;;;;;;;12.70;5.25;;;;;;;11.21;97.91;102062.56;5045051;28;20277;-54
2022/01/01 08:54:14;;;;;;;12.35;4.53;;;;;;;11.25;97.52;102071.78;5049521;28;20021;-54
2022/01/01 08:56:40;;;;;;;10.88;4.38;;;;;;;11.19;97.71;102075.38;5054556;28;20032;-52
2022/01/01 08:59:06;;;;;;;10.43;4.28;;;;;;;11.25;97.38;102076.34;5053958;28;20043;-53
2022/01/01 09:01:32;;;;;;;8.90;4.70;;;;;;;11.21;97.46;102075.97;5048644;28;20024;-51
2022/01/01 09:03:58;;;;;;;12.65;4.90;;;;;;;11.28;97.30;102081.25;5050554;28;20453;-52
2022/01/01 09:06:23;;;;;;;10.07;4.97;;;;;;;11.26;97.23;102086.03;5050768;28;20024;-55
2022/01/01 09:08:49;;;;;;;9.65;4.90;;;;;;;11.30;96.90;102084.53;5049944;28;20028;-55
2022/01/01 09:11:16;;;;;;;12.48;5.00;;;;;;;11.23;96.78;102091.84;5055091;28;20028;-55
2022/01/01 09:13:43;;;;;;;12.15;4.95;;;;;;;11.30;96.64;102084.53;5057374;28;20455;-54
2022/01/01 09:16:15;;;;;;;17.15;5.43;;;;;;;11.34;96.31;102101.88;5058427;28;20028;-52
2022/01/01 09:18:42;;;;;;;9.63;4.88;;;;;;;11.39;96.28;102099.34;5060152;28;20048;-54
2022/01/01 09:21:08;;;;;;;10.82;5.10;;;;;;;11.36;96.18;102102.47;5053869;28;20033;-53
2022/01/01 09:23:34;;;;;;;10.15;5.20;;;;;;;11.39;95.92;102107.38;5056881;28;20504;-53
2022/01/01 09:26:02;;;;;;;11.25;4.90;;;;;;;11.42;95.66;102109.63;5054766;28;20044;-55
2022/01/01 09:28:29;;;;;;;11.95;5.00;;;;;;;11.44;95.61;102112.91;5055507;28;20033;-55
2022/01/01 09:30:56;;;;;;;10.35;5.20;;;;;;;11.44;95.65;102120.94;5053845;28;20601;-54
2022/01/01 09:33:21;;;;;;;14.57;5.72;;;;;;;11.45;95.39;102123.41;5056356;28;20033;-54
2022/01/01 09:35:47;;;;;;;10.45;4.43;;;;;;;11.46;95.24;102122.38;5056514;28;20036;-56
2022/01/01 09:38:12;;;;;;;16.10;5.78;;;;;;;11.42;95.20;102123.84;5056883;28;20558;-53
2022/01/01 09:40:38;;;;;;;14.57;5.68;;;;;;;11.46;94.95;102124.22;5057022;28;20024;-52
2022/01/01 09:43:04;;;;;;;14.98;5.50;;;;;;;11.40;95.25;102133.19;5053195;28;20037;-55
2022/01/01 09:45:30;;;;;;;20.65;6.57;;;;;;;11.44;94.81;102135.19;5051951;28;20021;-54
2022/01/01 09:47:55;;;;;;;18.02;6.18;;;;;;;11.48;94.81;102128.34;5051323;28;20024;-55
2022/01/01 09:50:21;;;;;;;14.90;6.07;;;;;;;11.44;94.87;102150.47;5053139;28;20120;-54
2022/01/01 09:52:46;;;;;;;17.08;6.32;;;;;;;11.53;94.51;102143.81;5056558;28;20047;-53
2022/01/01 09:55:12;;;;;;;21.73;6.80;;;;;;;11.56;94.18;102140.69;5057820;28;20037;-52
2022/01/01 09:57:37;;;;;;;16.45;5.75;;;;;;;11.55;93.96;102149.78;5058089;28;20455;-53
2022/01/01 10:00:04;;;;;;;14.60;5.53;;;;;;;11.56;93.95;102153.28;5054915;28;20599;-55
2022/01/01 10:02:31;;;;;;;13.13;5.85;;;;;;;11.59;93.82;102163.56;5060475;28;20040;-53
2022/01/01 10:05:06;;;;;;;23.85;6.72;;;;;;;11.58;93.68;102164.59;5054865;28;20059;-54
2022/01/01 10:07:31;;;;;;;12.82;5.63;;;;;;;11.64;93.56;102174.47;5054366;28;20599;-52
2022/01/01 10:09:58;;;;;;;11.07;5.68;;;;;;;11.57;93.53;102171.84;5055176;28;20037;-53
2022/01/01 10:12:43;;;;;;;14.85;6.68;;;;;;;11.61;93.18;102177.59;5055167;28;20036;-56
2022/01/01 10:15:08;;;;;;;;;;;;;;;11.62;93.22;102171.19;5052853;28;20059;-53
2022/01/01 10:17:34;;;;;;;16.75;6.65;;;;;;;11.73;92.92;102175.84;5058504;28;19960;-53
2022/01/01 10:20:00;;;;;;;15.40;6.45;;;;;;;11.71;92.71;102183.28;5052582;28;20730;-55
2022/01/01 10:22:25;;;;;;;14.75;6.95;;;;;;;11.71;92.81;102188.66;5052153;28;20021;-52
2022/01/01 10:27:59;;;;;;;17.30;7.00;;;;;;;11.71;92.88;102189.47;5057827;28;20595;-53
2022/01/01 10:30:34;;;;;;;14.30;7.22;;;;;;;11.66;92.87;102191.97;5057927;28;20029;-52
2022/01/01 10:33:05;;;;;;;20.40;7.78;;;;;;;11.68;92.95;102189.94;5052602;28;20236;-55
2022/01/01 10:35:43;;;;;;;15.32;6.80;;;;;;;11.64;92.93;102187.88;5054690;28;20501;-56
2022/01/01 10:38:20;;;;;;;16.27;7.05;;;;;;;11.63;93.18;102191.59;5051756;28;20027;-52
2022/01/01 10:40:46;;;;;;;18.55;7.55;;;;;;;11.66;93.34;102197.34;5050416;28;20029;-57
2022/01/01 10:43:15;;;;;;;20.27;7.03;;;;;;;11.61;93.74;102197.19;5051904;28;20032;-54
2022/01/01 10:45:47;;;;;;;18.05;8.52;;;;;;;11.67;93.60;102196.34;5049727;28;20033;-54
2022/01/01 10:48:24;;;;;;;21.88;7.57;;;;;;;11.68;93.57;102205.22;5051846;28;20576;-53
2022/01/01 10:50:51;;;;;;;14.63;7.78;;;;;;;11.72;93.62;102203.72;5040403;28;20036;-55
2022/01/01 10:53:28;;;;;;;20.23;7.35;;;;;;;11.61;93.70;102210.63;5057163;28;20028;-52
2022/01/01 10:56:15;;;;;;;22.95;8.18;;;;;;;11.70;93.58;102203.94;5061253;28;20070;-55
2022/01/01 10:58:41;;;;;;;21.23;7.88;;;;;;;11.79;93.38;102202.66;5058228;28;20063;-51
2022/01/01 11:01:08;;;;;;;22.25;8.82;;;;;;;11.88;92.78;102210.44;5051399;28;20025;-53
2022/01/01 11:03:37;;;;;;;15.05;7.90;;;;;;;11.92;92.45;102206.25;5057178;28;20031;-54
2022/01/01 11:06:08;;;;;;;25.45;8.68;;;;;;;11.90;92.22;102194.91;5052553;28;20106;-52
2022/01/01 11:08:35;;;;;;;25.52;8.75;;;;;;;11.95;92.01;102187.00;5041060;28;20024;-51
2022/01/01 11:11:02;;;;;;;23.40;8.18;;;;;;;11.92;92.05;102190.16;5052873;28;20025;-53
2022/01/01 11:13:28;;;;;;;20.17;8.18;;;;;;;11.92;91.88;102192.84;5061479;28;20443;-55
2022/01/01 11:15:54;;;;;;;15.40;7.45;;;;;;;12.03;91.75;102202.84;5055132;28;20117;-54
2022/01/01 11:18:21;;;;;;;22.63;8.40;;;;;;;12.00;91.38;102197.91;5060526;28;20063;-53
2022/01/01 11:20:47;;;;;;;19.65;8.35;;;;;;;12.01;91.24;102202.22;5049752;28;20487;-54